createdAt,value
2023-02-27T00:01:46.300Z,-0.56
2023-02-27T00:04:15.850Z,-0.70
2023-02-27T00:06:44.011Z,-0.61
2023-02-27T00:09:12.162Z,-0.62
2023-02-27T00:11:40.319Z,-0.48
2023-02-27T00:14:08.355Z,-0.59
2023-02-27T00:16:36.381Z,-0.45
2023-02-27T00:19:07.187Z,-0.47
2023-02-27T00:21:37.846Z,-0.36
2023-02-27T00:24:06.402Z,-0.61
2023-02-27T00:26:34.447Z,-0.62
2023-02-27T00:29:02.486Z,-0.66
2023-02-27T00:31:30.820Z,-0.46
2023-02-27T00:33:59.011Z,-0.71
2023-02-27T00:36:27.158Z,-0.52
2023-02-27T00:38:56.663Z,-0.64
2023-02-27T00:41:26.920Z,-0.58
2023-02-27T00:43:55.140Z,-0.59
2023-02-27T00:46:23.206Z,-0.57
2023-02-27T00:48:52.382Z,-0.61
2023-02-27T00:51:21.916Z,-0.75
2023-02-27T00:53:49.970Z,-0.75
2023-02-27T00:56:19.366Z,-0.61
2023-02-27T00:58:47.394Z,-0.70
2023-02-27T01:01:15.513Z,-0.72
2023-02-27T01:03:45.801Z,-0.86
2023-02-27T01:06:13.882Z,-0.85
2023-02-27T01:08:42.064Z,-0.83
2023-02-27T01:11:10.045Z,-0.76
2023-02-27T01:13:39.473Z,-0.96
2023-02-27T01:16:08.454Z,-0.90
2023-02-27T01:18:36.773Z,-0.82
2023-02-27T01:21:05.056Z,-0.85
2023-02-27T01:23:33.485Z,-0.92
2023-02-27T01:26:01.555Z,-0.79
2023-02-27T01:28:31.920Z,-0.76
2023-02-27T01:31:01.549Z,-0.91
2023-02-27T01:33:29.890Z,-1.09
2023-02-27T01:35:57.948Z,-0.92
2023-02-27T01:38:26.726Z,-0.97
2023-02-27T01:40:54.772Z,-1.02
2023-02-27T01:43:23.277Z,-1.12
2023-02-27T01:45:54.180Z,-1.12
2023-02-27T01:48:26.015Z,-1.00
2023-02-27T01:50:55.784Z,-0.92
2023-02-27T01:53:26.013Z,-1.15
2023-02-27T01:55:55.099Z,-1.22
2023-02-27T01:58:23.488Z,-1.18
2023-02-27T02:00:52.770Z,-1.16
2023-02-27T02:03:25.835Z,-1.17
2023-02-27T02:05:57.822Z,-1.21
2023-02-27T02:08:29.999Z,-1.16
2023-02-27T02:10:59.242Z,-1.19
2023-02-27T02:13:27.361Z,-1.13
2023-02-27T02:16:01.682Z,-1.17
2023-02-27T02:18:35.575Z,-1.30
2023-02-27T02:21:21.585Z,-1.21
2023-02-27T02:24:17.132Z,-1.15
2023-02-27T02:27:09.018Z,-1.19
2023-02-27T02:29:58.069Z,-1.20
2023-02-27T02:32:44.022Z,-1.19
2023-02-27T02:35:31.111Z,-1.31
2023-02-27T02:38:14.760Z,-1.35
2023-02-27T02:40:44.879Z,-1.21
2023-02-27T02:43:14.621Z,-1.26
2023-02-27T02:45:48.262Z,-1.17
2023-02-27T02:48:19.378Z,-1.15
2023-02-27T02:50:51.280Z,-1.24
2023-02-27T02:53:36.622Z,-1.19
2023-02-27T02:56:09.204Z,-1.36
2023-02-27T02:58:39.117Z,-1.12
2023-02-27T03:01:10.421Z,-1.34
2023-02-27T03:03:41.737Z,-1.34
2023-02-27T03:06:12.173Z,-1.42
2023-02-27T03:08:44.237Z,-1.26
2023-02-27T03:11:12.257Z,-1.36
2023-02-27T03:13:48.876Z,-1.33
2023-02-27T03:16:19.207Z,-1.47
2023-02-27T03:18:51.411Z,-1.34
2023-02-27T03:21:22.655Z,-1.38
2023-02-27T03:23:54.112Z,-1.42
2023-02-27T03:26:34.324Z,-1.41
2023-02-27T03:29:04.915Z,-1.41
2023-02-27T03:31:35.138Z,-1.36
2023-02-27T03:34:08.084Z,-1.51
2023-02-27T03:36:39.036Z,-1.30
2023-02-27T03:39:15.729Z,-1.65
2023-02-27T03:41:47.028Z,-1.41
2023-02-27T03:44:29.665Z,-1.39
2023-02-27T03:46:57.812Z,-1.53
2023-02-27T03:49:25.943Z,-1.67
2023-02-27T03:51:54.646Z,-1.60
2023-02-27T03:54:27.283Z,-1.39
2023-02-27T03:57:01.082Z,-1.52
2023-02-27T03:59:30.085Z,-1.39
2023-02-27T04:01:58.777Z,-1.53
2023-02-27T04:04:31.747Z,-1.57
2023-02-27T04:07:25.734Z,-1.54
2023-02-27T04:10:11.452Z,-1.46
2023-02-27T04:12:53.533Z,-1.52
2023-02-27T04:15:26.733Z,-1.52
2023-02-27T04:17:57.328Z,-1.57
2023-02-27T04:20:33.661Z,-1.61
2023-02-27T04:23:04.839Z,-1.60
2023-02-27T04:25:40.557Z,-1.57
2023-02-27T04:28:17.365Z,-1.46
2023-02-27T04:30:48.682Z,-1.46
2023-02-27T04:33:22.936Z,-1.75
2023-02-27T04:35:52.656Z,-1.65
2023-02-27T04:38:28.374Z,-1.76
2023-02-27T04:40:58.771Z,-1.67
2023-02-27T04:43:29.394Z,-1.66
2023-02-27T04:45:58.993Z,-1.81
2023-02-27T04:48:29.332Z,-1.66
2023-02-27T04:51:00.716Z,-1.63
2023-02-27T04:53:32.503Z,-1.70
2023-02-27T04:56:05.785Z,-1.65
2023-02-27T04:58:37.876Z,-1.63
2023-02-27T05:01:09.761Z,-1.79
2023-02-27T05:03:41.261Z,-1.70
2023-02-27T05:06:11.769Z,-1.59
2023-02-27T05:08:43.741Z,-1.57
2023-02-27T05:11:15.894Z,-1.57
2023-02-27T05:13:47.618Z,-1.75
2023-02-27T05:16:20.794Z,-1.77
2023-02-27T05:18:49.291Z,-1.74
2023-02-27T05:21:24.573Z,-1.81
2023-02-27T05:23:57.504Z,-1.79
2023-02-27T05:26:32.432Z,-1.84
2023-02-27T05:29:05.397Z,-1.80
2023-02-27T05:31:36.454Z,-1.85
2023-02-27T05:34:07.428Z,-1.73
2023-02-27T05:36:37.773Z,-1.89
2023-02-27T05:39:06.926Z,-1.81
2023-02-27T05:41:40.217Z,-1.76
2023-02-27T05:44:16.625Z,-1.86
2023-02-27T05:46:46.613Z,-1.80
2023-02-27T05:49:17.227Z,-1.79
2023-02-27T05:51:47.692Z,-1.85
2023-02-27T05:54:22.245Z,-1.89
2023-02-27T05:56:51.851Z,-1.85
2023-02-27T05:59:24.752Z,-1.84
2023-02-27T06:01:52.789Z,-1.78
2023-02-27T06:04:20.988Z,-1.79
2023-02-27T06:06:49.138Z,-1.93
2023-02-27T06:09:17.525Z,-1.91
2023-02-27T06:11:45.610Z,-1.96
2023-02-27T06:14:14.166Z,-1.91
2023-02-27T06:16:43.678Z,-1.83
2023-02-27T06:19:11.924Z,-1.92
2023-02-27T06:21:39.961Z,-1.86
2023-02-27T06:24:08.063Z,-1.86
2023-02-27T06:26:36.045Z,-1.96
2023-02-27T06:29:04.083Z,-1.92
2023-02-27T06:31:32.107Z,-1.84
2023-02-27T06:34:01.408Z,-2.00
2023-02-27T06:36:30.341Z,-1.86
2023-02-27T06:38:58.815Z,-1.78
2023-02-27T06:41:26.948Z,-1.85
2023-02-27T06:43:55.680Z,-1.59
2023-02-27T06:46:23.705Z,-1.77
2023-02-27T06:48:51.744Z,-1.90
2023-02-27T06:51:21.147Z,-1.74
2023-02-27T06:53:49.289Z,-1.73
2023-02-27T06:56:17.387Z,-1.70
2023-02-27T06:58:45.487Z,-1.73
2023-02-27T07:01:14.520Z,-1.64
2023-02-27T07:03:42.572Z,-1.52
2023-02-27T07:06:11.049Z,-1.46
2023-02-27T07:09:01.835Z,-1.50
2023-02-27T07:11:28.637Z,-1.51
2023-02-27T07:13:56.729Z,-1.31
2023-02-27T07:16:25.185Z,-1.35
2023-02-27T07:18:53.324Z,-1.23
2023-02-27T07:21:21.340Z,-1.33
2023-02-27T07:23:50.641Z,-1.15
2023-02-27T07:26:18.775Z,-0.87
2023-02-27T07:28:46.823Z,-0.91
2023-02-27T07:31:15.231Z,-0.91
2023-02-27T07:33:46.327Z,-0.82
2023-02-27T07:36:14.365Z,-0.74
2023-02-27T07:38:44.824Z,-0.56
2023-02-27T07:41:29.626Z,-0.44
2023-02-27T07:44:01.448Z,-0.43
2023-02-27T07:46:30.041Z,-0.41
2023-02-27T07:48:58.291Z,-0.10
2023-02-27T07:51:26.398Z,-0.06
2023-02-27T07:53:54.411Z,0.00
2023-02-27T07:56:26.353Z,-0.14
2023-02-27T07:58:54.616Z,-0.23
2023-02-27T08:01:22.699Z,-0.11
2023-02-27T08:03:50.738Z,0.24
2023-02-27T08:06:18.754Z,-0.06
2023-02-27T08:08:46.853Z,0.26
2023-02-27T08:11:15.500Z,0.19
2023-02-27T08:14:02.003Z,0.08
2023-02-27T08:16:32.208Z,0.40
2023-02-27T08:19:00.674Z,0.36
2023-02-27T08:21:29.371Z,0.57
2023-02-27T08:23:57.768Z,0.41
2023-02-27T08:26:26.100Z,0.67
2023-02-27T08:28:55.932Z,0.88
2023-02-27T08:31:24.104Z,1.10
2023-02-27T08:34:01.018Z,1.25
2023-02-27T08:36:34.635Z,0.83
2023-02-27T08:39:02.630Z,0.76
2023-02-27T08:41:30.712Z,0.77
2023-02-27T08:44:00.062Z,1.22
2023-02-27T08:46:28.467Z,1.40
2023-02-27T08:48:59.077Z,1.04
2023-02-27T08:51:27.429Z,1.33
2023-02-27T08:53:59.023Z,1.45
2023-02-27T08:56:27.886Z,1.58
2023-02-27T08:58:56.504Z,1.57
2023-02-27T09:01:28.480Z,1.59
2023-02-27T09:03:57.587Z,1.54
2023-02-27T09:06:26.517Z,1.91
2023-02-27T09:08:55.645Z,2.03
2023-02-27T09:11:23.882Z,1.86
2023-02-27T09:13:52.841Z,1.82
2023-02-27T09:16:21.620Z,1.80
2023-02-27T09:18:51.456Z,1.86
2023-02-27T09:21:22.575Z,2.14
2023-02-27T09:23:50.700Z,2.15
2023-02-27T09:26:18.737Z,2.38
2023-02-27T09:28:46.772Z,2.10
2023-02-27T09:31:14.989Z,2.62
2023-02-27T09:33:43.075Z,2.22
2023-02-27T09:36:13.300Z,2.31
2023-02-27T09:38:41.580Z,2.37
2023-02-27T09:41:22.499Z,2.41
2023-02-27T09:43:52.122Z,2.68
2023-02-27T09:46:24.352Z,2.25
2023-02-27T09:48:54.396Z,2.32
2023-02-27T09:51:24.503Z,2.35
2023-02-27T09:53:53.967Z,2.65
2023-02-27T09:56:24.173Z,2.61
2023-02-27T09:58:58.995Z,2.98
2023-02-27T10:01:31.955Z,2.82
2023-02-27T10:04:18.979Z,3.44
2023-02-27T10:06:50.476Z,3.25
2023-02-27T10:09:27.251Z,2.84
2023-02-27T10:12:01.966Z,3.01
2023-02-27T10:14:38.483Z,2.91
2023-02-27T10:17:12.850Z,2.97
2023-02-27T10:19:41.371Z,3.42
2023-02-27T10:22:13.195Z,3.04
2023-02-27T10:24:45.802Z,3.41
2023-02-27T10:27:16.569Z,3.16
2023-02-27T10:29:44.843Z,3.00
2023-02-27T10:32:14.750Z,3.48
2023-02-27T10:34:44.127Z,3.12
2023-02-27T10:37:15.826Z,3.10
2023-02-27T10:39:46.513Z,2.79
2023-02-27T10:42:16.148Z,3.05
2023-02-27T10:44:44.165Z,3.24
2023-02-27T10:47:14.639Z,3.01
2023-02-27T10:49:43.993Z,3.57
2023-02-27T10:52:14.453Z,3.79
2023-02-27T10:54:43.221Z,3.21
2023-02-27T10:57:20.746Z,3.34
2023-02-27T10:59:52.777Z,3.66
2023-02-27T11:02:22.588Z,3.54
2023-02-27T11:04:53.961Z,3.55
2023-02-27T11:07:32.821Z,3.53
2023-02-27T11:10:16.171Z,3.63
2023-02-27T11:12:57.294Z,3.62
2023-02-27T11:15:26.828Z,3.48
2023-02-27T11:17:55.082Z,3.84
2023-02-27T11:20:43.544Z,3.40
2023-02-27T11:23:16.082Z,3.85
2023-02-27T11:25:45.134Z,3.54
2023-02-27T11:28:15.381Z,3.58
2023-02-27T11:30:43.717Z,3.57
2023-02-27T11:33:18.457Z,3.33
2023-02-27T11:35:51.309Z,3.82
2023-02-27T11:38:28.909Z,3.60
2023-02-27T11:40:58.352Z,3.59
2023-02-27T11:43:30.004Z,4.17
2023-02-27T11:46:09.876Z,3.89
2023-02-27T11:48:49.635Z,3.30
2023-02-27T11:51:26.659Z,3.77
2023-02-27T11:54:21.690Z,3.75
2023-02-27T11:56:54.461Z,3.83
2023-02-27T11:59:31.712Z,3.56
2023-02-27T12:02:03.953Z,4.45
2023-02-27T12:04:41.003Z,3.69
2023-02-27T12:07:15.191Z,3.57
2023-02-27T12:09:46.807Z,4.45
2023-02-27T12:12:18.717Z,3.73
2023-02-27T12:14:50.418Z,3.66
2023-02-27T12:17:22.522Z,3.73
2023-02-27T12:20:07.589Z,3.93
2023-02-27T12:22:41.525Z,3.46
2023-02-27T12:25:16.621Z,3.77
2023-02-27T12:27:47.130Z,4.09
2023-02-27T12:30:17.362Z,4.01
2023-02-27T12:32:50.149Z,3.95
2023-02-27T12:35:23.121Z,3.72
2023-02-27T12:37:51.908Z,4.08
2023-02-27T12:40:22.452Z,3.46
2023-02-27T12:42:58.952Z,3.86
2023-02-27T12:45:49.614Z,3.61
2023-02-27T12:48:24.286Z,4.04
2023-02-27T12:50:57.447Z,3.74
2023-02-27T12:53:33.393Z,4.29
2023-02-27T12:56:06.884Z,3.43
2023-02-27T12:58:46.586Z,3.41
2023-02-27T13:01:19.807Z,3.54
2023-02-27T13:03:51.803Z,3.68
2023-02-27T13:06:23.941Z,3.39
2023-02-27T13:09:08.573Z,3.67
2023-02-27T13:11:51.478Z,4.09
2023-02-27T13:14:29.660Z,3.70
2023-02-27T13:17:00.830Z,3.85
2023-02-27T13:19:31.685Z,4.35
2023-02-27T13:22:05.373Z,3.89
2023-02-27T13:24:34.509Z,4.12
2023-02-27T13:27:05.857Z,4.35
2023-02-27T13:29:36.531Z,4.35
2023-02-27T13:32:11.059Z,3.48
2023-02-27T13:34:41.657Z,4.20
2023-02-27T13:37:09.937Z,4.00
2023-02-27T13:39:38.994Z,3.92
2023-02-27T13:42:33.055Z,4.20
2023-02-27T13:45:01.986Z,4.06
2023-02-27T13:47:40.360Z,3.94
2023-02-27T13:50:27.062Z,3.73
2023-02-27T13:52:55.312Z,3.64
2023-02-27T13:55:27.296Z,3.64
2023-02-27T13:57:58.208Z,3.59
2023-02-27T14:00:27.134Z,3.73
2023-02-27T14:03:00.295Z,3.80
2023-02-27T14:05:34.830Z,3.74
2023-02-27T14:08:08.989Z,3.56
2023-02-27T14:10:38.203Z,3.80
2023-02-27T14:13:27.477Z,3.97
2023-02-27T14:15:57.296Z,4.30
2023-02-27T14:18:55.169Z,4.20
2023-02-27T14:21:56.219Z,3.94
2023-02-27T14:24:29.893Z,4.10
2023-02-27T14:26:58.264Z,3.74
2023-02-27T14:29:31.145Z,3.85
2023-02-27T14:32:01.790Z,3.49
2023-02-27T14:34:30.959Z,3.69
2023-02-27T14:37:02.130Z,3.56
2023-02-27T14:39:34.265Z,3.82
2023-02-27T14:42:15.404Z,3.65
2023-02-27T14:44:46.461Z,3.81
2023-02-27T14:47:16.287Z,3.50
2023-02-27T14:49:46.471Z,3.52
2023-02-27T14:52:19.046Z,3.36
2023-02-27T14:54:47.366Z,3.65
2023-02-27T14:57:18.394Z,3.83
2023-02-27T14:59:48.765Z,3.66
2023-02-27T15:02:19.763Z,3.88
2023-02-27T15:04:48.060Z,3.87
2023-02-27T15:07:24.580Z,3.97
2023-02-27T15:09:54.802Z,4.02
2023-02-27T15:12:24.613Z,3.98
2023-02-27T15:14:55.684Z,3.54
2023-02-27T15:17:28.899Z,3.62
2023-02-27T15:19:58.209Z,3.66
2023-02-27T15:22:38.834Z,3.45
2023-02-27T15:25:09.186Z,3.42
2023-02-27T15:27:38.474Z,3.39
2023-02-27T15:30:20.575Z,3.21
2023-02-27T15:32:48.799Z,3.25
2023-02-27T15:35:19.818Z,3.54
2023-02-27T15:37:51.737Z,3.24
2023-02-27T15:40:22.932Z,3.10
2023-02-27T15:42:51.362Z,3.19
2023-02-27T15:45:21.643Z,3.39
2023-02-27T15:47:50.261Z,3.08
2023-02-27T15:50:28.242Z,3.22
2023-02-27T15:53:00.399Z,3.05
2023-02-27T15:55:30.895Z,3.36
2023-02-27T15:58:03.834Z,3.58
2023-02-27T16:00:35.167Z,3.37
2023-02-27T16:03:03.657Z,3.35
2023-02-27T16:05:35.412Z,3.16
2023-02-27T16:08:03.765Z,3.31
2023-02-27T16:10:36.672Z,3.35
2023-02-27T16:13:19.589Z,3.18
2023-02-27T16:15:58.567Z,3.08
2023-02-27T16:18:29.176Z,3.13
2023-02-27T16:21:08.821Z,3.05
2023-02-27T16:23:37.072Z,3.05
2023-02-27T16:26:19.316Z,2.90
2023-02-27T16:28:52.029Z,3.03
2023-02-27T16:31:29.457Z,3.02
2023-02-27T16:33:59.297Z,3.07
2023-02-27T16:36:28.696Z,3.27
2023-02-27T16:38:57.280Z,2.91
2023-02-27T16:41:26.613Z,3.09
2023-02-27T16:43:55.668Z,2.91
2023-02-27T16:46:24.306Z,2.95
2023-02-27T16:48:54.764Z,2.97
2023-02-27T16:51:24.092Z,2.96
2023-02-27T16:53:54.569Z,2.94
2023-02-27T16:56:37.359Z,2.77
2023-02-27T16:59:06.211Z,2.93
2023-02-27T17:01:34.751Z,3.01
2023-02-27T17:04:13.360Z,2.87
2023-02-27T17:06:47.787Z,2.94
2023-02-27T17:09:15.932Z,2.92
2023-02-27T17:11:43.901Z,2.95
2023-02-27T17:14:11.957Z,3.04
2023-02-27T17:16:40.110Z,2.86
2023-02-27T17:19:09.554Z,2.97
2023-02-27T17:21:37.672Z,3.12
2023-02-27T17:24:06.182Z,2.91
2023-02-27T17:26:34.336Z,2.98
2023-02-27T17:29:03.103Z,3.00
2023-02-27T17:31:31.379Z,3.12
2023-02-27T17:33:59.419Z,2.91
2023-02-27T17:36:31.653Z,2.98
2023-02-27T17:39:01.769Z,2.95
2023-02-27T17:41:30.465Z,2.99
2023-02-27T17:43:59.103Z,2.95
2023-02-27T17:46:28.392Z,3.02
2023-02-27T17:49:00.342Z,3.47
2023-02-27T17:51:29.546Z,3.03
2023-02-27T17:53:58.933Z,3.11
2023-02-27T17:56:27.415Z,2.96
2023-02-27T17:58:55.749Z,3.05
2023-02-27T18:01:25.712Z,2.97
2023-02-27T18:03:54.878Z,3.01
2023-02-27T18:06:23.182Z,2.90
2023-02-27T18:08:51.241Z,2.94
2023-02-27T18:11:21.880Z,2.90
2023-02-27T18:13:50.488Z,2.97
2023-02-27T18:16:22.180Z,2.85
2023-02-27T18:18:50.344Z,3.00
2023-02-27T18:21:19.948Z,3.00
2023-02-27T18:23:48.664Z,3.04
2023-02-27T18:26:29.491Z,2.85
2023-02-27T18:29:01.042Z,2.75
2023-02-27T18:31:30.656Z,3.03
2023-02-27T18:33:58.782Z,2.97
2023-02-27T18:36:27.205Z,3.02
2023-02-27T18:38:55.526Z,2.81
2023-02-27T18:41:23.825Z,2.83
2023-02-27T18:43:51.972Z,3.04
2023-02-27T18:46:21.809Z,2.79
2023-02-27T18:48:50.056Z,2.81
2023-02-27T18:51:18.702Z,2.90
2023-02-27T18:53:49.963Z,2.93
2023-02-27T18:56:20.518Z,-143.11
2023-02-27T18:58:48.819Z,-143.11
2023-02-27T19:01:24.320Z,-143.11
2023-02-27T19:03:53.229Z,-143.11
2023-02-27T19:06:21.554Z,-143.11
2023-02-27T19:08:49.899Z,-143.11
2023-02-27T19:11:23.408Z,-143.11
2023-02-27T19:13:52.254Z,-143.11
2023-02-27T19:16:21.967Z,-143.11
2023-02-27T19:18:50.365Z,-143.11
2023-02-27T19:21:21.100Z,-143.11
2023-02-27T19:23:51.675Z,-143.11
2023-02-27T19:26:20.969Z,-143.11
2023-02-27T19:28:51.370Z,-143.11
2023-02-27T19:31:24.908Z,-143.11
2023-02-27T19:33:53.481Z,-143.11
2023-02-27T19:36:23.552Z,-143.11
2023-02-27T19:38:52.511Z,-143.11
2023-02-27T19:41:21.715Z,-143.11
2023-02-27T19:43:51.555Z,-143.11
2023-02-27T19:46:22.198Z,-143.11
2023-02-27T19:48:52.386Z,-143.11
2023-02-27T19:51:21.296Z,-143.11
2023-02-27T19:53:49.889Z,-143.11
2023-02-27T19:56:19.977Z,-143.11
2023-02-27T19:58:49.012Z,-143.11
2023-02-27T20:01:23.636Z,-143.11
2023-02-27T20:03:53.469Z,-143.11
2023-02-27T20:06:24.686Z,-143.11
2023-02-27T20:08:54.215Z,-143.11
2023-02-27T20:11:22.563Z,-143.11
2023-02-27T20:13:52.506Z,-143.11
2023-02-27T20:16:23.882Z,-143.11
2023-02-27T20:18:53.705Z,-143.11
2023-02-27T20:21:24.326Z,-143.11
2023-02-27T20:23:53.388Z,-143.11
2023-02-27T20:26:24.090Z,-143.11
2023-02-27T20:28:54.540Z,-143.11
2023-02-27T20:31:25.800Z,-143.11
2023-02-27T20:33:56.200Z,-143.11
2023-02-27T20:36:25.055Z,-143.11
2023-02-27T20:38:53.375Z,-143.11
2023-02-27T20:41:27.558Z,-143.11
2023-02-27T20:43:57.530Z,-143.11
2023-02-27T20:46:30.107Z,-143.11
2023-02-27T20:49:01.069Z,-143.11
2023-02-27T20:51:31.396Z,-143.11
2023-02-27T20:54:01.191Z,-143.11
2023-02-27T20:56:32.179Z,-143.11
2023-02-27T20:59:02.639Z,-143.11
2023-02-27T21:01:31.514Z,-143.11
2023-02-27T21:04:03.681Z,-143.11
2023-02-27T21:06:32.086Z,-143.11
2023-02-27T21:09:04.813Z,-143.11
2023-02-27T21:11:33.897Z,-143.11
2023-02-27T21:14:06.504Z,-143.11
2023-02-27T21:16:34.890Z,-143.11
2023-02-27T21:19:05.397Z,-143.11
2023-02-27T21:21:35.154Z,-143.11
2023-02-27T21:24:03.916Z,-143.11
2023-02-27T21:26:35.413Z,-143.11
2023-02-27T21:29:06.938Z,-143.11
2023-02-27T21:31:36.487Z,-143.11
2023-02-27T21:34:10.468Z,-143.11
2023-02-27T21:36:42.508Z,-143.11
2023-02-27T21:39:14.115Z,-143.11
2023-02-27T21:41:45.298Z,-143.11
2023-02-27T21:44:15.815Z,-143.11
2023-02-27T21:46:45.209Z,-143.11
2023-02-27T21:49:18.315Z,-143.11
2023-02-27T21:51:47.429Z,-143.11
2023-02-27T21:54:17.379Z,-143.11
2023-02-27T21:56:48.088Z,-143.11
2023-02-27T22:02:37.387Z,0.17
2023-02-27T22:05:06.664Z,0.28
2023-02-27T22:07:35.016Z,0.05
2023-02-27T22:10:03.318Z,0.06
2023-02-27T22:12:31.567Z,0.05
2023-02-27T22:14:59.971Z,-0.04
2023-02-27T22:17:28.411Z,0.13
2023-02-27T22:19:58.024Z,0.14
2023-02-27T22:22:26.322Z,0.12
2023-02-27T22:24:55.117Z,0.13
2023-02-27T22:27:23.441Z,0.20
2023-02-27T22:29:51.749Z,0.36
2023-02-27T22:32:22.193Z,0.21
2023-02-27T22:34:50.843Z,0.29
2023-02-27T22:37:23.354Z,0.17
2023-02-27T22:39:51.762Z,0.09
2023-02-27T22:42:20.111Z,0.12
2023-02-27T22:44:48.528Z,0.07
2023-02-27T22:47:18.998Z,0.24
2023-02-27T22:49:47.274Z,0.22
2023-02-27T22:52:15.510Z,0.06
2023-02-27T22:54:47.588Z,0.23
2023-02-27T22:57:18.185Z,0.14
2023-02-27T22:59:50.403Z,0.13
2023-02-27T23:02:18.842Z,0.08
2023-02-27T23:04:47.141Z,0.22
2023-02-27T23:07:15.828Z,0.07
2023-02-27T23:09:44.709Z,0.00
2023-02-27T23:12:14.359Z,-0.12
2023-02-27T23:14:42.698Z,-0.13
2023-02-27T23:17:11.405Z,-0.25
2023-02-27T23:19:39.914Z,-0.25
2023-02-27T23:22:08.704Z,-0.26
2023-02-27T23:24:39.463Z,-0.18
2023-02-27T23:27:25.367Z,-0.29
2023-02-27T23:29:55.683Z,-0.22
2023-02-27T23:32:24.642Z,-0.25
2023-02-27T23:34:53.003Z,-0.38
2023-02-27T23:37:21.317Z,-0.48
2023-02-27T23:39:49.687Z,-0.29
2023-02-27T23:42:17.995Z,-0.51
2023-02-27T23:44:46.335Z,-0.50
2023-02-27T23:47:33.278Z,-0.52
2023-02-27T23:50:01.658Z,-0.57
2023-02-27T23:52:29.992Z,-0.58
2023-02-27T23:54:58.473Z,-0.42
2023-02-27T23:57:26.710Z,-0.40
2023-02-27T23:59:55.059Z,-0.37
